Time;durP1;ratioP1;P1;durP2;ratioP2;P2;SDS_P1;SDS_P2;PMS_P1;PMS_P2;Temp;Humidity;BMP_temperature;BMP_pressure;BME280_temperature;BME280_humidity;BME280_pressure;Samples;Min_cycle;Max_cycle;Signal;HPM_P1;HPM_P2
2021/04/12 00:00:00;;;;;;;7.40;4.57;;;4.40;99.90;;;;;;5068984;28;20169;-79
2021/04/12 00:02:34;;;;;;;4.13;3.72;;;4.40;1.00;;;;;;5070939;28;20208;-77
2021/04/12 00:05:12;;;;;;;4.88;4.05;;;4.30;99.90;;;;;;5070944;28;20243;-79
2021/04/12 00:07:43;;;;;;;4.72;3.35;;;4.30;99.90;;;;;;5064966;28;20212;-80
2021/04/12 00:10:16;;;;;;;3.28;2.97;;;4.30;99.90;;;;;;5057449;28;20264;-81
2021/04/12 00:12:49;;;;;;;3.88;3.28;;;4.30;99.90;;;;;;5058113;28;20201;-80
2021/04/12 00:15:22;;;;;;;4.20;3.10;;;4.30;99.90;;;;;;5039969;28;20239;-80
2021/04/12 00:17:53;;;;;;;5.13;3.17;;;4.30;99.90;;;;;;5057865;28;20204;-78
2021/04/12 00:20:27;;;;;;;4.93;3.90;;;4.30;99.90;;;;;;5058470;28;20615;-80
2021/04/12 00:23:00;;;;;;;3.90;2.92;;;4.20;99.90;;;;;;5039927;28;20287;-80
2021/04/12 00:25:35;;;;;;;3.25;2.92;;;4.10;99.90;;;;;;5039774;28;20181;-79
2021/04/12 00:28:10;;;;;;;4.47;3.13;;;4.00;99.90;;;;;;5040425;28;20192;-79
2021/04/12 00:30:42;;;;;;;3.60;2.55;;;3.90;1.00;;;;;;5057307;28;20234;-80
2021/04/12 00:33:14;;;;;;;5.47;3.78;;;3.90;99.90;;;;;;5057817;28;20176;-79
2021/04/12 00:35:46;;;;;;;3.80;2.97;;;3.90;99.90;;;;;;5039375;28;20216;-80
2021/04/12 00:38:20;;;;;;;2.50;2.30;;;3.80;99.90;;;;;;5057354;28;20211;-80
2021/04/12 00:40:57;;;;;;;4.45;3.13;;;3.80;99.90;;;;;;5058162;28;20291;-81
2021/04/12 00:43:31;;;;;;;3.45;3.08;;;3.80;99.90;;;;;;5040251;28;20227;-81
2021/04/12 00:46:26;;;;;;;6.65;3.58;;;3.80;99.90;;;;;;5047746;28;20200;-80
2021/04/12 00:49:14;;;;;;;3.08;2.78;;;3.70;99.90;;;;;;5065322;28;20177;-78
2021/04/12 00:51:52;;;;;;;4.60;3.13;;;3.80;99.90;;;;;;5051414;28;20220;-80
2021/04/12 00:54:46;;;;;;;3.45;2.97;;;3.70;99.90;;;;;;5060786;28;20189;-79
2021/04/12 00:57:26;;;;;;;7.93;4.53;;;3.60;99.90;;;;;;5042076;28;20200;-80
2021/04/12 01:00:02;;;;;;;8.48;4.00;;;3.60;99.90;;;;;;5042030;28;20219;-79
2021/04/12 01:02:43;;;;;;;4.13;3.63;;;3.60;99.90;;;;;;5042561;28;20303;-79
2021/04/12 01:05:26;;;;;;;5.47;4.18;;;3.60;99.90;;;;;;5043402;28;20185;-79
2021/04/12 01:08:18;;;;;;;6.25;4.63;;;3.70;99.90;;;;;;5042632;28;20196;-80
2021/04/12 01:11:24;;;;;;;5.63;3.42;;;3.70;99.90;;;;;;5041767;28;20224;-79
2021/04/12 01:14:19;;;;;;;4.70;3.58;;;3.60;99.90;;;;;;5033742;28;20201;-80
2021/04/12 01:17:01;;;;;;;4.38;3.60;;;3.60;99.90;;;;;;5043469;28;20196;-79
2021/04/12 01:20:04;;;;;;;6.38;3.63;;;3.60;99.90;;;;;;5078636;28;20171;-80
2021/04/12 01:23:17;;;;;;;11.15;3.50;;;3.70;99.90;;;;;;5080048;28;20212;-79
2021/04/12 01:26:32;;;;;;;4.85;3.80;;;3.70;99.90;;;;;;5063436;28;20191;-81
2021/04/12 01:29:37;;;;;;;6.60;4.00;;;3.60;99.90;;;;;;5063500;28;20220;-80
2021/04/12 01:32:43;;;;;;;4.40;3.85;;;3.50;99.90;;;;;;5080652;28;20212;-80
2021/04/12 01:35:49;;;;;;;4.78;3.28;;;3.40;99.90;;;;;;5063233;28;20192;-81
2021/04/12 01:38:28;;;;;;;3.35;3.03;;;3.40;99.90;;;;;;5056641;28;20219;-80
2021/04/12 01:41:24;;;;;;;3.80;3.45;;;3.30;99.90;;;;;;5059397;28;20274;-81
2021/04/12 01:44:18;;;;;;;6.07;2.85;;;3.30;99.90;;;;;;5059403;28;20569;-80
2021/04/12 01:46:58;;;;;;;2.95;2.70;;;3.30;99.90;;;;;;5050479;28;20291;-80
2021/04/12 01:49:40;;;;;;;5.13;3.60;;;3.30;99.90;;;;;;5058903;28;20215;-79
2021/04/12 01:52:43;;;;;;;5.60;3.40;;;3.40;99.90;;;;;;5058940;28;20212;-80
2021/04/12 01:55:32;;;;;;;4.75;3.38;;;3.40;99.90;;;;;;5040566;28;20235;-80
2021/04/12 01:58:24;;;;;;;5.30;4.03;;;3.40;99.90;;;;;;5040455;28;20710;-80
2021/04/12 02:01:01;;;;;;;5.38;4.00;;;3.50;99.90;;;;;;5057939;28;20204;-79
2021/04/12 02:03:45;;;;;;;4.22;3.75;;;3.50;99.90;;;;;;5056742;28;20613;-80
2021/04/12 02:06:28;;;;;;;5.13;3.30;;;3.50;99.90;;;;;;5055906;28;20250;-80
2021/04/12 02:09:04;;;;;;;5.53;3.28;;;3.50;99.90;;;;;;5039661;28;20197;-80
2021/04/12 02:11:49;;;;;;;6.40;4.50;;;3.50;99.90;;;;;;5058023;28;20262;-80
2021/04/12 02:14:41;;;;;;;3.58;3.28;;;3.40;99.90;;;;;;5055387;28;20212;-80
2021/04/12 02:17:16;;;;;;;4.30;3.15;;;3.40;99.90;;;;;;5052350;28;20258;-80
2021/04/12 02:19:53;;;;;;;4.63;3.47;;;3.30;99.90;;;;;;5048385;28;20185;-80
2021/04/12 02:22:39;;;;;;;3.47;2.70;;;3.30;99.90;;;;;;5066637;28;20268;-80
2021/04/12 02:25:16;;;;;;;4.35;3.20;;;3.20;99.90;;;;;;5062152;28;20169;-80
2021/04/12 02:27:52;;;;;;;3.97;3.45;;;3.20;99.90;;;;;;5050056;28;20192;-79
2021/04/12 02:30:28;;;;;;;4.93;3.50;;;3.10;99.90;;;;;;5070425;28;20200;-79
2021/04/12 02:33:07;;;;;;;3.90;3.50;;;3.20;99.90;;;;;;5052878;28;20263;-77
2021/04/12 02:35:41;;;;;;;3.90;3.50;;;3.20;99.90;;;;;;5051408;28;20208;-78
2021/04/12 02:38:20;;;;;;;4.35;3.42;;;3.20;99.90;;;;;;5044035;28;20225;-79
2021/04/12 02:40:59;;;;;;;4.05;3.13;;;3.20;99.90;;;;;;5065456;28;20276;-79
2021/04/12 02:43:50;;;;;;;7.65;4.20;;;3.20;99.90;;;;;;5068863;28;20193;-79
2021/04/12 02:46:48;;;;;;;3.88;2.90;;;3.20;99.90;;;;;;5060965;28;20212;-80
2021/04/12 02:49:24;;;;;;;3.42;2.75;;;3.30;99.90;;;;;;5042714;28;20243;-80
2021/04/12 02:52:01;;;;;;;7.53;4.45;;;3.30;99.90;;;;;;5059693;28;20227;-77
2021/04/12 02:55:10;;;;;;;3.65;3.28;;;3.30;99.90;;;;;;5061087;28;20387;-81
2021/04/12 02:58:05;;;;;;;3.80;2.85;;;3.40;99.90;;;;;;5026972;28;20200;-80
2021/04/12 03:01:05;;;;;;;6.50;4.07;;;3.50;99.90;;;;;;5058905;28;20212;-80
2021/04/12 03:03:47;;;;;;;4.25;3.17;;;3.50;99.90;;;;;;5035875;28;20283;-79
2021/04/12 03:06:47;;;;;;;4.00;3.50;;;3.60;99.90;;;;;;5039799;28;20232;-79
2021/04/12 03:09:44;;;;;;;4.32;3.55;;;3.60;99.90;;;;;;5026659;28;20297;-79
2021/04/12 03:12:50;;;;;;;6.65;4.28;;;3.60;99.90;;;;;;5049308;28;20327;-81
2021/04/12 03:15:43;;;;;;;3.92;2.90;;;3.70;99.90;;;;;;5059650;28;20260;-81
2021/04/12 03:19:09;;;;;;;4.32;3.70;;;3.70;99.90;;;;;;5059859;28;20176;-80
2021/04/12 03:22:05;;;;;;;4.32;3.35;;;3.70;99.90;;;;;;4997417;28;20262;-79
2021/04/12 03:24:40;;;;;;;3.08;2.42;;;3.70;99.90;;;;;;4981561;28;20577;-81
2021/04/12 03:27:25;;;;;;;6.65;5.72;;;3.70;99.90;;;;;;5052281;28;20287;-80
2021/04/12 03:30:08;;;;;;;3.88;2.78;;;3.70;99.90;;;;;;5040523;28;20555;-81
2021/04/12 03:32:57;;;;;;;5.95;4.05;;;3.70;99.90;;;;;;5058948;28;20208;-80
2021/04/12 03:35:44;;;;;;;3.20;2.90;;;3.70;99.90;;;;;;5040663;28;20181;-79
2021/04/12 03:38:28;;;;;;;8.30;4.75;;;3.80;99.90;;;;;;5039835;28;20732;-79
2021/04/12 03:41:26;;;;;;;7.32;3.67;;;3.80;99.90;;;;;;5039993;28;20242;-79
2021/04/12 03:44:11;;;;;;;4.30;3.20;;;3.80;99.90;;;;;;5057779;28;20189;-79
2021/04/12 03:47:19;;;;;;;4.05;3.75;;;3.80;99.90;;;;;;5058066;28;20170;-79
2021/04/12 03:50:14;;;;;;;5.13;3.58;;;3.90;99.90;;;;;;5041201;28;20581;-80
2021/04/12 03:53:05;;;;;;;7.10;5.00;;;3.90;99.90;;;;;;5042789;28;20181;-79
2021/04/12 03:56:08;;;;;;;6.90;3.40;;;3.80;99.90;;;;;;5041535;28;20201;-80
2021/04/12 03:59:02;;;;;;;5.22;3.05;;;3.80;99.90;;;;;;5041552;28;20208;-80
2021/04/12 04:01:54;;;;;;;5.03;4.15;;;3.80;99.90;;;;;;5067859;28;20623;-80
2021/04/12 04:04:34;;;;;;;7.55;4.30;;;3.80;99.90;;;;;;5048265;28;20209;-80
2021/04/12 04:07:32;;;;;;;4.57;3.65;;;3.80;99.90;;;;;;5039688;28;20193;-80
2021/04/12 04:10:27;;;;;;;5.43;4.03;;;3.80;99.90;;;;;;5043845;28;20207;-81
2021/04/12 04:13:10;;;;;;;4.15;3.20;;;3.90;99.90;;;;;;5050230;28;20181;-78
2021/04/12 04:15:53;;;;;;;3.53;2.95;;;3.90;99.90;;;;;;5067698;28;20183;-80
2021/04/12 04:18:28;;;;;;;5.97;3.30;;;3.90;99.90;;;;;;5059614;28;20640;-79
2021/04/12 04:21:32;;;;;;;4.82;3.15;;;4.00;99.90;;;;;;5061829;28;20319;-79
2021/04/12 04:24:32;;;;;;;4.95;3.35;;;3.90;99.90;;;;;;5046529;28;20199;-79
2021/04/12 04:27:14;;;;;;;4.80;3.90;;;3.90;99.90;;;;;;5031043;28;20279;-79
2021/04/12 04:30:21;;;;;;;4.13;3.45;;;3.90;99.90;;;;;;5041970;28;20226;-79
2021/04/12 04:33:08;;;;;;;3.70;3.22;;;3.90;99.90;;;;;;5057500;28;20192;-79
2021/04/12 04:36:18;;;;;;;11.35;3.67;;;3.90;99.90;;;;;;5040346;28;20236;-80
2021/04/12 04:39:07;;;;;;;3.25;2.42;;;3.90;99.90;;;;;;5056729;28;20188;-79
2021/04/12 04:41:50;;;;;;;3.05;2.72;;;3.90;99.90;;;;;;5040229;28;20217;-80
2021/04/12 04:44:35;;;;;;;4.97;3.47;;;3.90;99.90;;;;;;5057801;28;20248;-79
2021/04/12 04:47:34;;;;;;;3.42;3.05;;;3.90;99.90;;;;;;5039841;28;20283;-80
2021/04/12 04:50:16;;;;;;;3.75;2.47;;;3.90;99.90;;;;;;5007319;28;20201;-79
2021/04/12 04:53:04;;;;;;;3.38;3.08;;;4.00;99.90;;;;;;5057838;28;20200;-79
2021/04/12 04:55:43;;;;;;;3.35;3.05;;;4.00;99.90;;;;;;5057950;28;20212;-78
2021/04/12 04:58:18;;;;;;;3.40;2.97;;;3.90;99.90;;;;;;5047708;28;20230;-80
2021/04/12 05:01:19;;;;;;;3.20;2.90;;;3.90;99.90;;;;;;5050101;28;20223;-78
2021/04/12 05:04:17;;;;;;;3.08;2.78;;;3.90;99.90;;;;;;5043141;28;20208;-77
2021/04/12 05:07:23;;;;;;;3.22;2.70;;;3.90;99.90;;;;;;5045189;28;20196;-78
2021/04/12 05:10:24;;;;;;;3.17;2.80;;;4.00;99.90;;;;;;5064232;28;20200;-80
2021/04/12 05:13:09;;;;;;;2.42;2.22;;;4.00;99.90;;;;;;5068985;28;20181;-80
2021/04/12 05:16:02;;;;;;;5.53;2.50;;;4.00;99.90;;;;;;5076429;28;20192;-80
2021/04/12 05:18:57;;;;;;;3.53;2.95;;;4.00;99.90;;;;;;5044611;28;20215;-81
2021/04/12 05:22:01;;;;;;;3.08;2.05;;;3.90;99.90;;;;;;5076864;28;20248;-78
2021/04/12 05:25:04;;;;;;;3.90;2.65;;;3.90;99.90;;;;;;5042597;28;20239;-81
2021/04/12 05:27:52;;;;;;;3.67;2.90;;;3.90;99.90;;;;;;5077078;28;20173;-82
2021/04/12 05:30:57;;;;;;;3.05;2.72;;;4.00;99.90;;;;;;5051415;28;20216;-79
2021/04/12 05:33:57;;;;;;;2.92;2.00;;;4.00;99.90;;;;;;5058263;28;20188;-81
2021/04/12 05:36:38;;;;;;;2.58;2.20;;;4.10;99.90;;;;;;5015673;28;20651;-80
2021/04/12 05:39:37;;;;;;;3.85;3.40;;;4.00;99.90;;;;;;5040221;28;20199;-79
2021/04/12 05:42:39;;;;;;;2.10;1.90;;;4.00;99.90;;;;;;5073249;28;20239;-79
2021/04/12 05:45:43;;;;;;;3.05;1.70;;;4.00;99.90;;;;;;5066988;28;20693;-81
2021/04/12 05:48:32;;;;;;;3.30;2.30;;;4.10;99.90;;;;;;5044185;28;20193;-79
2021/04/12 05:51:17;;;;;;;10.63;2.20;;;4.00;99.90;;;;;;5042896;28;20292;-80
2021/04/12 05:54:06;;;;;;;2.45;2.25;;;4.00;99.90;;;;;;5065109;28;20200;-80
2021/04/12 05:57:00;;;;;;;5.28;2.40;;;4.00;99.90;;;;;;5048599;28;20181;-79
2021/04/12 05:59:49;;;;;;;2.63;2.15;;;4.00;99.90;;;;;;5074474;28;20212;-79
2021/04/12 06:02:27;;;;;;;2.10;1.90;;;4.10;99.90;;;;;;5074781;28;20241;-79
2021/04/12 06:05:04;;;;;;;2.90;2.17;;;4.10;99.90;;;;;;5073824;28;20227;-78
2021/04/12 06:08:08;;;;;;;6.38;2.33;;;4.10;22.00;;;;;;5073497;28;20189;-79
2021/04/12 06:10:49;;;;;;;3.00;2.35;;;4.10;99.90;;;;;;5057140;28;20212;-80
2021/04/12 06:13:54;;;;;;;1.80;1.70;;;4.20;1.00;;;;;;5040020;28;20317;-78
2021/04/12 06:16:54;;;;;;;2.05;1.95;;;4.30;1.00;;;;;;5040215;28;20261;-79
2021/04/12 06:19:49;;;;;;;6.43;2.20;;;4.50;1.00;;;;;;5039160;28;20204;-79
2021/04/12 06:22:35;;;;;;;2.63;2.15;;;4.30;96.80;;;;;;5035543;28;20216;-80
2021/04/12 06:25:38;;;;;;;2.25;1.58;;;4.40;1.00;;;;;;5063134;28;20204;-79
2021/04/12 06:28:46;;;;;;;2.08;1.10;;;4.40;1.00;;;;;;5060705;28;20200;-78
2021/04/12 06:31:57;;;;;;;21.52;20.00;;;4.50;1.00;;;;;;5062219;28;20205;-79
2021/04/12 06:34:54;;;;;;;2.05;1.70;;;4.50;99.90;;;;;;5061336;28;20177;-81
2021/04/12 06:37:53;;;;;;;6.28;2.63;;;4.40;99.90;;;;;;5063208;28;20212;-78
2021/04/12 06:41:00;;;;;;;2.75;1.85;;;4.60;99.90;;;;;;5062316;28;20224;-78
2021/04/12 06:44:10;;;;;;;4.35;3.95;;;4.50;90.70;;;;;;5048078;28;20193;-79
2021/04/12 06:47:20;;;;;;;3.13;1.90;;;4.30;99.90;;;;;;5040808;28;20213;-79
2021/04/12 06:50:26;;;;;;;1.95;1.30;;;4.40;99.90;;;;;;5051602;28;20307;-79
2021/04/12 06:53:23;;;;;;;4.00;1.38;;;4.60;1.00;;;;;;5061461;28;20658;-78
2021/04/12 06:56:32;;;;;;;1.25;1.10;;;4.70;99.90;;;;;;5016336;28;20196;-79
2021/04/12 06:59:38;;;;;;;2.30;2.00;;;4.60;99.90;;;;;;5000276;28;20196;-79
2021/04/12 07:02:44;;;;;;;2.33;1.60;;;4.60;99.90;;;;;;5058578;28;20235;-80
2021/04/12 07:05:35;;;;;;;5.72;1.55;;;4.60;30.20;;;;;;5060361;28;20203;-79
2021/04/12 07:08:22;;;;;;;2.45;1.77;;;4.70;1.00;;;;;;5042791;28;20272;-80
2021/04/12 07:11:40;;;;;;;3.65;2.50;;;4.70;1.00;;;;;;5056699;28;20212;-81
2021/04/12 07:15:08;;;;;;;2.90;2.08;;;4.80;1.00;;;;;;5031049;28;20208;-82
2021/04/12 07:18:14;;;;;;;2.00;1.90;;;4.80;1.00;;;;;;5065483;28;20184;-82
2021/04/12 07:21:16;;;;;;;2.67;1.73;;;5.10;1.00;;;;;;5045202;28;20471;-83
2021/04/12 07:24:14;;;;;;;1.70;1.40;;;5.20;1.00;;;;;;5042337;28;20189;-79
2021/04/12 07:27:19;;;;;;;2.08;1.55;;;5.50;1.00;;;;;;5070746;28;20275;-80
2021/04/12 07:30:16;;;;;;;2.30;1.77;;;5.60;99.90;;;;;;5035758;28;20204;-80
2021/04/12 07:33:03;;;;;;;1.88;1.70;;;5.60;1.00;;;;;;5045493;28;20220;-78
2021/04/12 07:35:57;;;;;;;2.42;2.00;;;5.80;99.90;;;;;;5048690;28;20211;-79
2021/04/12 07:39:10;;;;;;;1.00;0.90;;;5.80;99.90;;;;;;5057212;28;20197;-78
2021/04/12 07:42:07;;;;;;;1.70;1.25;;;5.60;99.90;;;;;;5042006;28;20209;-81
2021/04/12 07:45:04;;;;;;;1.58;1.30;;;5.40;99.90;;;;;;5036207;28;20189;-79
2021/04/12 07:48:15;;;;;;;1.88;1.73;;;5.60;99.90;;;;;;5038535;28;20193;-79
2021/04/12 07:51:14;;;;;;;1.23;1.05;;;5.40;99.90;;;;;;5041354;28;20192;-79
2021/04/12 07:54:08;;;;;;;2.22;1.60;;;5.40;99.90;;;;;;5057743;28;20200;-77
2021/04/12 07:57:24;;;;;;;2.33;1.67;;;5.40;99.90;;;;;;5058433;28;20730;-80
2021/04/12 08:00:32;;;;;;;3.63;1.35;;;5.50;99.90;;;;;;5051092;28;20193;-79
2021/04/12 08:03:28;;;;;;;1.20;1.10;;;5.50;99.90;;;;;;5042442;28;20228;-84
2021/04/12 08:06:48;;;;;;;3.15;1.75;;;5.60;99.90;;;;;;5049076;28;20197;-84
2021/04/12 08:09:41;;;;;;;1.10;0.90;;;5.60;99.90;;;;;;5040363;28;20182;-78
2021/04/12 08:12:54;;;;;;;1.55;1.20;;;5.70;99.90;;;;;;5046257;28;20228;-79
2021/04/12 08:15:54;;;;;;;2.60;1.45;;;6.00;99.90;;;;;;5044044;28;20652;-79
2021/04/12 08:18:43;;;;;;;3.63;1.02;;;6.10;99.90;;;;;;5032732;28;20255;-79
2021/04/12 08:21:36;;;;;;;1.30;1.00;;;5.80;99.90;;;;;;5034518;28;20552;-79
2021/04/12 08:24:27;;;;;;;1.35;1.25;;;5.70;99.90;;;;;;5013883;28;20205;-80
2021/04/12 08:27:54;;;;;;;1.85;1.00;;;5.70;99.90;;;;;;5052822;28;20236;-80
2021/04/12 08:30:57;;;;;;;2.30;1.10;;;5.90;99.90;;;;;;5053313;28;20203;-78
2021/04/12 08:34:21;;;;;;;3.28;1.30;;;6.30;99.90;;;;;;5048366;28;20582;-78
2021/04/12 08:37:24;;;;;;;1.10;0.95;;;6.40;99.90;;;;;;5053550;28;20263;-77
2021/04/12 08:40:19;;;;;;;1.85;1.02;;;6.20;99.90;;;;;;5054984;28;20523;-77
2021/04/12 08:43:29;;;;;;;1.40;0.80;;;5.90;99.90;;;;;;5056330;28;20212;-79
2021/04/12 08:46:33;;;;;;;1.55;1.45;;;5.80;99.90;;;;;;5056748;28;20243;-78
2021/04/12 08:49:40;;;;;;;1.88;0.73;;;6.00;99.90;;;;;;5039110;28;20185;-79
2021/04/12 08:52:48;;;;;;;2.17;1.73;;;6.10;99.90;;;;;;5042036;28;20217;-78
2021/04/12 08:55:41;;;;;;;1.35;1.15;;;6.20;99.90;;;;;;5044979;28;20212;-79
2021/04/12 08:58:56;;;;;;;2.40;1.42;;;6.30;96.80;;;;;;5047346;28;20193;-82
2021/04/12 09:01:54;;;;;;;2.00;1.10;;;6.30;93.30;;;;;;5054589;28;20307;-80
2021/04/12 09:05:00;;;;;;;2.85;1.23;;;6.50;74.60;;;;;;5075094;28;20211;-82
2021/04/12 09:08:01;;;;;;;1.27;1.05;;;6.20;86.30;;;;;;5074142;28;20170;-82
2021/04/12 09:10:46;;;;;;;1.08;0.90;;;6.30;99.90;;;;;;5071528;28;20208;-83
2021/04/12 09:13:45;;;;;;;1.17;1.08;;;6.50;99.90;;;;;;5071939;28;20192;-80
2021/04/12 09:16:42;;;;;;;1.25;1.13;;;6.60;45.30;;;;;;5076510;28;20196;-82
2021/04/12 09:19:30;;;;;;;6.38;1.40;;;6.70;57.40;;;;;;5067545;28;20203;-83
2021/04/12 09:22:28;;;;;;;1.25;1.00;;;6.90;51.20;;;;;;5077386;28;20223;-80
2021/04/12 09:25:32;;;;;;;1.58;1.13;;;7.20;21.90;;;;;;5077683;28;20191;-83
2021/04/12 09:28:20;;;;;;;1.92;1.75;;;6.80;24.20;;;;;;5078263;28;20256;-81
2021/04/12 09:31:17;;;;;;;3.58;1.60;;;6.90;31.90;;;;;;5077919;28;20197;-82
2021/04/12 09:34:23;;;;;;;1.98;1.70;;;7.20;20.60;;;;;;5078762;28;20173;-82
2021/04/12 09:37:16;;;;;;;1.80;1.30;;;7.00;18.70;;;;;;5069099;28;20177;-82
2021/04/12 09:40:03;;;;;;;1.13;0.80;;;6.90;15.80;;;;;;5059364;28;20423;-84
2021/04/12 09:43:03;;;;;;;4.43;2.00;;;6.90;15.00;;;;;;5018334;28;20243;-84
2021/04/12 09:45:59;;;;;;;2.55;2.03;;;6.80;17.90;;;;;;5058362;28;20213;-82
2021/04/12 09:49:02;;;;;;;3.28;1.25;;;6.60;20.40;;;;;;5058838;28;20213;-82
2021/04/12 09:52:08;;;;;;;3.20;1.55;;;6.70;24.30;;;;;;5049129;28;20212;-84
2021/04/12 09:55:03;;;;;;;3.45;1.30;;;6.70;19.80;;;;;;5045666;28;20211;-83
2021/04/12 09:58:04;;;;;;;1.90;1.15;;;6.90;14.70;;;;;;5045656;28;20276;-82
2021/04/12 10:00:58;;;;;;;2.47;1.52;;;7.10;1.00;;;;;;5055088;28;20185;-82
2021/04/12 10:03:56;;;;;;;5.15;4.18;;;7.20;1.00;;;;;;5046520;28;20196;-83
2021/04/12 10:07:10;;;;;;;2.70;1.90;;;7.40;1.00;;;;;;5064405;28;20220;-83
2021/04/12 10:10:05;;;;;;;5.28;4.75;;;7.80;1.00;;;;;;5064941;28;20169;-82
2021/04/12 10:12:42;;;;;;;2.88;1.60;;;7.90;1.00;;;;;;5059976;28;20220;-84
2021/04/12 10:15:21;;;;;;;1.90;1.52;;;7.50;1.00;;;;;;5066200;28;20172;-84
2021/04/12 10:17:53;;;;;;;1.52;1.42;;;7.60;1.00;;;;;;5063169;28;20193;-83
2021/04/12 10:20:27;;;;;;;1.80;1.10;;;7.50;1.00;;;;;;5064910;28;20215;-83
2021/04/12 10:23:02;;;;;;;1.95;1.30;;;7.30;1.00;;;;;;5063653;28;20243;-83
2021/04/12 10:25:36;;;;;;;7.97;2.30;;;7.10;1.00;;;;;;5064186;28;20189;-84
2021/04/12 10:28:18;;;;;;;1.73;1.13;;;7.00;1.00;;;;;;5062601;28;20204;-83
2021/04/12 10:30:51;;;;;;;1.80;1.42;;;7.20;1.00;;;;;;5068335;28;20204;-77
2021/04/12 10:33:26;;;;;;;5.25;2.60;;;7.50;1.00;;;;;;5065718;28;20188;-78
2021/04/12 10:35:59;;;;;;;2.20;1.88;;;7.30;1.00;;;;;;5069062;28;20192;-79
2021/04/12 10:38:31;;;;;;;1.80;1.60;;;7.20;1.00;;;;;;5065355;28;20205;-79
2021/04/12 10:41:10;;;;;;;2.72;1.80;;;7.40;1.00;;;;;;5053781;28;20213;-79
2021/04/12 10:44:06;;;;;;;3.92;1.40;;;7.30;1.00;;;;;;5051424;28;20200;-79
2021/04/12 10:46:44;;;;;;;4.20;1.65;;;7.30;1.00;;;;;;5049565;28;20197;-79
2021/04/12 10:49:16;;;;;;;1.85;1.38;;;7.50;1.00;;;;;;5070202;28;20200;-78
2021/04/12 10:51:49;;;;;;;2.35;1.60;;;7.30;1.00;;;;;;5074791;28;20227;-78
2021/04/12 10:54:43;;;;;;;2.78;1.35;;;7.50;1.00;;;;;;5075677;28;20199;-78
2021/04/12 10:57:23;;;;;;;3.45;2.28;;;7.60;1.00;;;;;;5073884;28;20242;-79
2021/04/12 11:00:07;;;;;;;2.53;1.50;;;7.60;1.00;;;;;;5070178;28;20474;-80
2021/04/12 11:02:51;;;;;;;2.10;1.73;;;7.60;1.00;;;;;;5052509;28;20219;-78
2021/04/12 11:05:21;;;;;;;1.45;1.35;;;7.90;1.00;;;;;;5047240;28;20221;-78
2021/04/12 11:07:54;;;;;;;1.67;1.17;;;8.30;1.00;;;;;;5047819;28;20209;-79
2021/04/12 11:10:36;;;;;;;2.22;1.40;;;8.60;1.00;;;;;;5058765;28;20523;-79
2021/04/12 11:13:09;;;;;;;3.05;1.67;;;8.10;1.00;;;;;;5059952;28;20295;-79
2021/04/12 11:16:04;;;;;;;2.42;2.22;;;8.00;1.00;;;;;;5058087;28;20227;-78
2021/04/12 11:18:35;;;;;;;4.20;1.05;;;7.90;1.00;;;;;;5064728;28;20199;-81
2021/04/12 11:21:19;;;;;;;1.45;1.35;;;7.40;1.00;;;;;;5050267;28;20219;-79
2021/04/12 11:23:58;;;;;;;6.25;1.38;;;7.00;1.00;;;;;;5054631;28;20291;-79
2021/04/12 11:26:43;;;;;;;1.77;1.50;;;7.10;1.00;;;;;;5049820;28;20266;-79
2021/04/12 11:29:21;;;;;;;1.98;1.73;;;7.50;1.00;;;;;;5045228;28;20261;-79
2021/04/12 11:32:05;;;;;;;2.75;1.65;;;7.50;1.00;;;;;;5048320;28;20212;-79
2021/04/12 11:34:37;;;;;;;4.18;2.55;;;7.80;1.00;;;;;;5052879;28;20220;-79
2021/04/12 11:37:21;;;;;;;1.80;1.05;;;7.80;1.00;;;;;;5039988;28;20271;-79
2021/04/12 11:39:55;;;;;;;1.92;1.42;;;8.00;1.00;;;;;;5054198;28;20203;-78
2021/04/12 11:42:28;;;;;;;2.63;1.95;;;8.20;1.00;;;;;;5057450;28;20211;-80
2021/04/12 11:45:03;;;;;;;1.50;1.10;;;8.30;1.00;;;;;;5047832;28;20189;-80
2021/04/12 11:47:57;;;;;;;4.22;1.98;;;8.00;1.00;;;;;;5053646;28;20219;-80
2021/04/12 11:50:31;;;;;;;1.95;1.33;;;8.10;1.00;;;;;;5050383;28;20201;-79
2021/04/12 11:53:10;;;;;;;4.30;1.15;;;8.30;1.00;;;;;;5053935;28;20612;-80
2021/04/12 11:55:47;;;;;;;2.95;1.52;;;8.10;1.00;;;;;;5055357;28;20268;-80
2021/04/12 11:58:19;;;;;;;3.55;1.92;;;7.90;1.00;;;;;;5055193;28;20594;-80
2021/04/12 12:01:04;;;;;;;3.45;1.52;;;8.10;1.00;;;;;;5043153;28;20185;-85
2021/04/12 12:03:40;;;;;;;4.28;1.58;;;7.90;1.00;;;;;;5056157;28;20212;-83
2021/04/12 12:06:17;;;;;;;1.55;1.00;;;7.70;1.00;;;;;;5057045;28;20578;-85
2021/04/12 12:08:55;;;;;;;1.13;1.02;;;7.80;1.00;;;;;;5046185;28;20181;-81
2021/04/12 12:11:33;;;;;;;2.50;1.45;;;7.90;1.00;;;;;;5079687;22;20861;-65
2021/04/12 12:14:12;;;;;;;8.98;1.63;;;7.70;1.00;;;;;;5025098;28;20225;-66
2021/04/12 12:16:43;;;;;;;4.18;1.00;;;7.60;1.00;;;;;;5028198;28;20195;-65
2021/04/12 12:19:23;;;;;;;4.88;1.63;;;7.90;1.00;;;;;;5002797;28;20201;-67
2021/04/12 12:21:56;;;;;;;1.08;0.98;;;8.10;1.00;;;;;;5012140;28;20186;-68
2021/04/12 12:24:31;;;;;;;1.00;0.85;;;8.30;1.00;;;;;;4999763;28;20185;-68
2021/04/12 12:27:05;;;;;;;2.55;1.55;;;8.60;1.00;;;;;;5014050;28;20274;-67
2021/04/12 12:29:37;;;;;;;1.55;1.15;;;8.70;1.00;;;;;;5014131;28;20707;-67
2021/04/12 12:32:27;;;;;;;2.53;1.20;;;9.20;1.00;;;;;;5014140;28;20186;-67
2021/04/12 12:35:08;;;;;;;3.63;1.30;;;9.40;1.00;;;;;;5013544;28;20292;-66
2021/04/12 12:37:52;;;;;;;1.08;0.80;;;9.40;1.00;;;;;;5030541;28;20725;-66
2021/04/12 12:40:22;;;;;;;3.92;1.58;;;9.30;1.00;;;;;;5030796;28;20702;-67
2021/04/12 12:42:52;;;;;;;3.25;1.27;;;9.30;1.00;;;;;;5030965;28;20272;-68
2021/04/12 12:45:27;;;;;;;4.05;0.82;;;9.40;1.00;;;;;;5030578;28;20196;-66
2021/04/12 12:47:58;;;;;;;1.10;0.90;;;9.00;1.00;;;;;;5022184;28;20213;-66
2021/04/12 12:50:30;;;;;;;2.17;1.10;;;8.70;1.00;;;;;;5032256;28;20180;-66
2021/04/12 12:53:01;;;;;;;1.00;0.90;;;8.70;1.00;;;;;;5034562;28;20641;-67
2021/04/12 12:55:32;;;;;;;3.17;1.17;;;8.70;1.00;;;;;;5035742;28;20193;-66
2021/04/12 12:58:07;;;;;;;0.90;0.80;;;8.60;1.00;;;;;;5035627;28;20216;-65
2021/04/12 13:00:38;;;;;;;5.28;1.20;;;8.90;1.00;;;;;;5026994;28;20196;-67
2021/04/12 13:03:18;;;;;;;1.10;0.95;;;8.80;1.00;;;;;;5015808;28;20198;-68
2021/04/12 13:05:49;;;;;;;2.00;0.80;;;8.90;1.00;;;;;;5015952;28;20242;-66
2021/04/12 13:08:23;;;;;;;3.17;1.00;;;9.30;1.00;;;;;;5028574;28;20209;-66
2021/04/12 13:10:50;;;;;;;1.38;0.82;;;9.30;1.00;;;;;;5043192;28;20208;-66
2021/04/12 13:13:29;;;;;;;2.17;1.17;;;9.00;1.00;;;;;;5044494;28;20189;-66
2021/04/12 13:16:09;;;;;;;1.95;0.90;;;8.70;1.00;;;;;;5039918;28;20189;-65
2021/04/12 13:18:40;;;;;;;1.98;1.15;;;8.40;1.00;;;;;;5038244;28;20229;-67
2021/04/12 13:21:13;;;;;;;1.60;0.80;;;8.30;1.00;;;;;;5038240;28;20205;-66
2021/04/12 13:23:53;;;;;;;1.50;0.95;;;8.00;1.00;;;;;;5038338;28;20181;-66
2021/04/12 13:26:30;;;;;;;1.05;0.90;;;8.20;1.00;;;;;;5038031;28;20234;-66
2021/04/12 13:29:05;;;;;;;1.25;0.98;;;8.60;1.00;;;;;;5021257;28;20193;-66
2021/04/12 13:31:38;;;;;;;2.45;0.90;;;8.60;1.00;;;;;;5038577;28;20193;-68
2021/04/12 13:34:12;;;;;;;1.63;0.95;;;8.50;1.00;;;;;;5036527;28;20206;-66
2021/04/12 13:36:43;;;;;;;4.40;1.55;;;8.70;1.00;;;;;;5030621;28;20272;-67
2021/04/12 13:39:14;;;;;;;3.78;2.42;;;8.90;1.00;;;;;;5020862;28;20186;-64
2021/04/12 13:41:46;;;;;;;1.45;0.80;;;9.00;1.00;;;;;;5015542;28;20590;-66
2021/04/12 13:44:15;;;;;;;1.98;0.90;;;8.80;1.00;;;;;;5015342;28;20194;-66
2021/04/12 13:47:03;;;;;;;1.30;0.80;;;8.90;1.00;;;;;;5032358;28;20681;-66
2021/04/12 13:49:41;;;;;;;5.15;1.00;;;9.00;1.00;;;;;;5004747;28;20182;-66
2021/04/12 13:52:13;;;;;;;2.55;0.82;;;9.20;1.00;;;;;;5019457;28;20193;-66
2021/04/12 13:54:44;;;;;;;2.80;1.65;;;9.40;1.00;;;;;;5017257;28;20189;-68
2021/04/12 13:57:23;;;;;;;0.88;0.60;;;9.40;1.00;;;;;;5033445;28;20577;-66
2021/04/12 13:59:54;;;;;;;1.10;0.70;;;9.00;1.00;;;;;;5025143;28;20209;-67
2021/04/12 14:02:29;;;;;;;4.18;1.17;;;8.90;1.00;;;;;;5032346;28;20207;-65
2021/04/12 14:04:59;;;;;;;3.20;0.90;;;9.10;1.00;;;;;;5033227;28;20173;-66
2021/04/12 14:07:41;;;;;;;3.03;0.85;;;9.00;1.00;;;;;;5026886;28;20225;-66
2021/04/12 14:10:15;;;;;;;4.28;1.10;;;8.80;1.00;;;;;;5013663;28;20192;-67
2021/04/12 14:13:05;;;;;;;4.38;1.42;;;8.80;1.00;;;;;;5013225;28;20288;-66
2021/04/12 14:15:43;;;;;;;1.80;1.00;;;8.90;1.00;;;;;;5010191;28;20206;-66
2021/04/12 14:18:20;;;;;;;2.42;1.25;;;8.70;1.00;;;;;;5033198;28;20220;-67
2021/04/12 14:20:48;;;;;;;1.45;0.90;;;8.70;1.00;;;;;;5033282;28;20654;-66
2021/04/12 14:23:20;;;;;;;9.68;1.40;;;9.00;1.00;;;;;;5033017;28;20409;-66
2021/04/12 14:25:56;;;;;;;6.35;1.17;;;9.30;1.00;;;;;;5032794;28;20716;-66
2021/04/12 14:28:26;;;;;;;1.20;0.75;;;9.50;1.00;;;;;;5014442;28;20221;-66
2021/04/12 14:30:57;;;;;;;2.60;0.95;;;9.40;1.00;;;;;;5029542;28;20188;-67
2021/04/12 14:33:29;;;;;;;1.20;0.70;;;9.30;1.00;;;;;;5029702;28;20670;-65
2021/04/12 14:36:04;;;;;;;2.00;0.80;;;9.00;1.00;;;;;;5027146;28;20256;-66
2021/04/12 14:38:33;;;;;;;1.05;0.70;;;9.10;1.00;;;;;;5016404;28;20212;-66
2021/04/12 14:41:05;;;;;;;1.65;0.75;;;9.20;1.00;;;;;;5008164;28;20248;-66
2021/04/12 14:43:36;;;;;;;1.92;0.90;;;9.40;1.00;;;;;;5009782;28;20277;-66
2021/04/12 14:46:09;;;;;;;1.40;1.10;;;9.40;1.00;;;;;;5011815;28;20202;-66